sensor_id;sensor_type;location;lat;lon;timestamp;pressure;altitude;pressure_sealevel;temperature;humidity
33155;BME280;19511;42.682;23.332;2023-05-23T00:01:05;95087.75;;;10.89;100.00
33155;BME280;19511;42.682;23.332;2023-05-23T00:03:37;95073.19;;;10.85;100.00
33155;BME280;19511;42.682;23.332;2023-05-23T00:06:05;95078.28;;;10.90;100.00
33155;BME280;19511;42.682;23.332;2023-05-23T00:08:30;95069.69;;;10.81;100.00
33155;BME280;19511;42.682;23.332;2023-05-23T00:10:56;95077.34;;;11.00;100.00
33155;BME280;19511;42.682;23.332;2023-05-23T00:13:21;95090.06;;;10.94;100.00
33155;BME280;19511;42.682;23.332;2023-05-23T00:15:50;95086.56;;;10.90;100.00
33155;BME280;19511;42.682;23.332;2023-05-23T00:18:16;95078.34;;;10.83;100.00
33155;BME280;19511;42.682;23.332;2023-05-23T00:20:42;95071.25;;;10.82;100.00
33155;BME280;19511;42.682;23.332;2023-05-23T00:23:11;95079.91;;;10.84;100.00
33155;BME280;19511;42.682;23.332;2023-05-23T00:25:43;95078.91;;;11.01;100.00
33155;BME280;19511;42.682;23.332;2023-05-23T00:28:17;95056.88;;;10.94;100.00
33155;BME280;19511;42.682;23.332;2023-05-23T00:30:43;95084.91;;;10.96;100.00
33155;BME280;19511;42.682;23.332;2023-05-23T00:33:08;95072.53;;;11.04;100.00
33155;BME280;19511;42.682;23.332;2023-05-23T00:35:34;95019.09;;;10.80;100.00
33155;BME280;19511;42.682;23.332;2023-05-23T00:37:59;95078.72;;;11.16;100.00
33155;BME280;19511;42.682;23.332;2023-05-23T00:40:33;95078.06;;;11.04;100.00
33155;BME280;19511;42.682;23.332;2023-05-23T00:43:02;95071.19;;;10.85;100.00
33155;BME280;19511;42.682;23.332;2023-05-23T00:45:28;95084.69;;;10.83;100.00
33155;BME280;19511;42.682;23.332;2023-05-23T00:47:57;95014.03;;;10.40;100.00
33155;BME280;19511;42.682;23.332;2023-05-23T00:50:27;95074.84;;;10.78;100.00
33155;BME280;19511;42.682;23.332;2023-05-23T00:52:56;95059.16;;;10.68;100.00
33155;BME280;19511;42.682;23.332;2023-05-23T00:55:23;95080.25;;;10.89;100.00
33155;BME280;19511;42.682;23.332;2023-05-23T00:57:56;95090.25;;;10.80;100.00
33155;BME280;19511;42.682;23.332;2023-05-23T01:00:23;95057.59;;;10.67;100.00
33155;BME280;19511;42.682;23.332;2023-05-23T01:02:49;94993.25;;;10.25;100.00
33155;BME280;19511;42.682;23.332;2023-05-23T01:05:16;95082.66;;;10.87;100.00
33155;BME280;19511;42.682;23.332;2023-05-23T01:07:43;95085.44;;;10.84;100.00
33155;BME280;19511;42.682;23.332;2023-05-23T01:10:13;95079.44;;;10.58;100.00
33155;BME280;19511;42.682;23.332;2023-05-23T01:12:51;95086.19;;;10.53;100.00
33155;BME280;19511;42.682;23.332;2023-05-23T01:15:32;95084.00;;;10.34;100.00
33155;BME280;19511;42.682;23.332;2023-05-23T01:20:34;95081.28;;;10.30;100.00
33155;BME280;19511;42.682;23.332;2023-05-23T01:23:12;95078.50;;;10.30;100.00
33155;BME280;19511;42.682;23.332;2023-05-23T01:28:49;95080.38;;;10.44;100.00
33155;BME280;19511;42.682;23.332;2023-05-23T01:31:17;95076.06;;;10.39;100.00
33155;BME280;19511;42.682;23.332;2023-05-23T01:33:45;95078.41;;;10.41;100.00
33155;BME280;19511;42.682;23.332;2023-05-23T01:36:14;95020.00;;;9.97;100.00
33155;BME280;19511;42.682;23.332;2023-05-23T01:38:40;95085.06;;;10.47;100.00
33155;BME280;19511;42.682;23.332;2023-05-23T01:41:05;95074.34;;;10.53;100.00
33155;BME280;19511;42.682;23.332;2023-05-23T01:43:31;95084.97;;;10.58;100.00
33155;BME280;19511;42.682;23.332;2023-05-23T01:45:58;95083.31;;;10.64;100.00
33155;BME280;19511;42.682;23.332;2023-05-23T01:48:25;94988.25;;;10.12;100.00
33155;BME280;19511;42.682;23.332;2023-05-23T01:50:52;95077.69;;;10.71;100.00
33155;BME280;19511;42.682;23.332;2023-05-23T01:53:20;95066.59;;;10.75;100.00
33155;BME280;19511;42.682;23.332;2023-05-23T01:55:46;95077.53;;;10.86;100.00
33155;BME280;19511;42.682;23.332;2023-05-23T01:58:16;95067.97;;;10.90;100.00
33155;BME280;19511;42.682;23.332;2023-05-23T02:00:41;95059.34;;;10.85;100.00
33155;BME280;19511;42.682;23.332;2023-05-23T02:03:07;95066.34;;;10.93;100.00
33155;BME280;19511;42.682;23.332;2023-05-23T02:05:32;95069.50;;;10.95;100.00
33155;BME280;19511;42.682;23.332;2023-05-23T02:07:58;95066.69;;;10.99;100.00
33155;BME280;19511;42.682;23.332;2023-05-23T02:10:27;95074.16;;;11.02;100.00
33155;BME280;19511;42.682;23.332;2023-05-23T02:12:53;95079.69;;;11.02;100.00
33155;BME280;19511;42.682;23.332;2023-05-23T02:15:18;95065.53;;;10.96;100.00
33155;BME280;19511;42.682;23.332;2023-05-23T02:17:43;95063.59;;;10.93;100.00
33155;BME280;19511;42.682;23.332;2023-05-23T02:20:12;95065.44;;;11.03;100.00
33155;BME280;19511;42.682;23.332;2023-05-23T02:22:38;95071.03;;;11.00;100.00
33155;BME280;19511;42.682;23.332;2023-05-23T02:25:04;95067.03;;;11.01;100.00
33155;BME280;19511;42.682;23.332;2023-05-23T02:27:30;95066.66;;;11.02;100.00
33155;BME280;19511;42.682;23.332;2023-05-23T02:29:56;95049.72;;;10.97;100.00
33155;BME280;19511;42.682;23.332;2023-05-23T02:32:22;94996.53;;;10.51;100.00
33155;BME280;19511;42.682;23.332;2023-05-23T02:34:47;95073.38;;;11.01;100.00
33155;BME280;19511;42.682;23.332;2023-05-23T02:37:18;95060.00;;;10.96;100.00
33155;BME280;19511;42.682;23.332;2023-05-23T02:39:43;95066.31;;;10.97;100.00
33155;BME280;19511;42.682;23.332;2023-05-23T02:42:09;94989.00;;;10.51;100.00
33155;BME280;19511;42.682;23.332;2023-05-23T02:44:38;95048.34;;;10.81;100.00
33155;BME280;19511;42.682;23.332;2023-05-23T02:47:04;95042.97;;;10.67;100.00
33155;BME280;19511;42.682;23.332;2023-05-23T02:49:30;95052.41;;;10.73;100.00
33155;BME280;19511;42.682;23.332;2023-05-23T02:51:55;95050.69;;;10.83;100.00
33155;BME280;19511;42.682;23.332;2023-05-23T02:54:24;95053.38;;;10.90;100.00
33155;BME280;19511;42.682;23.332;2023-05-23T02:56:50;95059.34;;;10.85;100.00
33155;BME280;19511;42.682;23.332;2023-05-23T02:59:17;95072.38;;;10.84;100.00
33155;BME280;19511;42.682;23.332;2023-05-23T03:01:50;95060.47;;;10.91;100.00
33155;BME280;19511;42.682;23.332;2023-05-23T03:04:18;95061.75;;;10.83;100.00
33155;BME280;19511;42.682;23.332;2023-05-23T03:06:43;95066.09;;;10.84;100.00
33155;BME280;19511;42.682;23.332;2023-05-23T03:09:14;95053.91;;;10.77;100.00
33155;BME280;19511;42.682;23.332;2023-05-23T03:11:41;95071.59;;;10.87;100.00
33155;BME280;19511;42.682;23.332;2023-05-23T03:14:07;95057.41;;;10.82;100.00
33155;BME280;19511;42.682;23.332;2023-05-23T03:16:32;95003.72;;;10.44;100.00
33155;BME280;19511;42.682;23.332;2023-05-23T03:18:58;95051.97;;;10.74;100.00
33155;BME280;19511;42.682;23.332;2023-05-23T03:21:26;95064.88;;;10.85;100.00
33155;BME280;19511;42.682;23.332;2023-05-23T03:23:52;95072.72;;;10.90;100.00
33155;BME280;19511;42.682;23.332;2023-05-23T03:26:18;95059.72;;;10.87;100.00
33155;BME280;19511;42.682;23.332;2023-05-23T03:28:43;95070.63;;;11.01;100.00
33155;BME280;19511;42.682;23.332;2023-05-23T03:31:11;95025.78;;;10.83;100.00
33155;BME280;19511;42.682;23.332;2023-05-23T03:33:39;95065.25;;;11.18;100.00
33155;BME280;19511;42.682;23.332;2023-05-23T03:36:11;95078.56;;;11.30;100.00
33155;BME280;19511;42.682;23.332;2023-05-23T03:38:36;95076.03;;;11.39;100.00
33155;BME280;19511;42.682;23.332;2023-05-23T03:41:01;95085.44;;;11.46;100.00
33155;BME280;19511;42.682;23.332;2023-05-23T03:43:27;95062.50;;;11.18;100.00
33155;BME280;19511;42.682;23.332;2023-05-23T03:45:53;95092.66;;;11.39;100.00
33155;BME280;19511;42.682;23.332;2023-05-23T03:48:21;95048.09;;;11.30;100.00
33155;BME280;19511;42.682;23.332;2023-05-23T03:50:47;95018.66;;;11.13;100.00
33155;BME280;19511;42.682;23.332;2023-05-23T03:53:12;95084.97;;;11.51;100.00
33155;BME280;19511;42.682;23.332;2023-05-23T03:55:38;95099.97;;;11.53;100.00
33155;BME280;19511;42.682;23.332;2023-05-23T03:58:06;95019.59;;;11.02;100.00
33155;BME280;19511;42.682;23.332;2023-05-23T04:00:32;95100.22;;;11.63;100.00
33155;BME280;19511;42.682;23.332;2023-05-23T04:02:57;95091.63;;;11.57;100.00
33155;BME280;19511;42.682;23.332;2023-05-23T04:05:23;95092.44;;;11.54;100.00
33155;BME280;19511;42.682;23.332;2023-05-23T04:07:48;95083.78;;;11.52;100.00
33155;BME280;19511;42.682;23.332;2023-05-23T04:10:19;95072.09;;;11.64;100.00
33155;BME280;19511;42.682;23.332;2023-05-23T04:12:44;95038.16;;;11.33;100.00
33155;BME280;19511;42.682;23.332;2023-05-23T04:15:10;95073.53;;;11.49;100.00
33155;BME280;19511;42.682;23.332;2023-05-23T04:17:36;95078.59;;;11.54;100.00
33155;BME280;19511;42.682;23.332;2023-05-23T04:20:07;95089.56;;;11.61;100.00
33155;BME280;19511;42.682;23.332;2023-05-23T04:22:39;95026.28;;;11.32;100.00
33155;BME280;19511;42.682;23.332;2023-05-23T04:25:05;95088.75;;;11.88;100.00
33155;BME280;19511;42.682;23.332;2023-05-23T04:27:31;95016.16;;;11.49;100.00
33155;BME280;19511;42.682;23.332;2023-05-23T04:29:56;95095.00;;;11.96;100.00
33155;BME280;19511;42.682;23.332;2023-05-23T04:32:23;95007.84;;;11.22;100.00
33155;BME280;19511;42.682;23.332;2023-05-23T04:34:49;95098.28;;;11.87;100.00
33155;BME280;19511;42.682;23.332;2023-05-23T04:37:15;95011.47;;;11.19;100.00
33155;BME280;19511;42.682;23.332;2023-05-23T04:39:41;95093.34;;;11.74;100.00
33155;BME280;19511;42.682;23.332;2023-05-23T04:42:07;95087.91;;;11.67;100.00
33155;BME280;19511;42.682;23.332;2023-05-23T04:44:32;95082.59;;;11.76;100.00
33155;BME280;19511;42.682;23.332;2023-05-23T04:46:58;95101.91;;;11.84;100.00
33155;BME280;19511;42.682;23.332;2023-05-23T04:49:23;95065.59;;;11.51;100.00
33155;BME280;19511;42.682;23.332;2023-05-23T04:51:49;95022.25;;;11.09;100.00
33155;BME280;19511;42.682;23.332;2023-05-23T04:54:15;95106.44;;;11.70;100.00
33155;BME280;19511;42.682;23.332;2023-05-23T04:56:40;95117.56;;;11.67;100.00
33155;BME280;19511;42.682;23.332;2023-05-23T04:59:06;95111.34;;;11.59;100.00
33155;BME280;19511;42.682;23.332;2023-05-23T05:01:33;95104.28;;;11.58;100.00
33155;BME280;19511;42.682;23.332;2023-05-23T05:03:58;95107.47;;;11.53;100.00
33155;BME280;19511;42.682;23.332;2023-05-23T05:06:27;95119.63;;;11.63;100.00
33155;BME280;19511;42.682;23.332;2023-05-23T05:08:53;95116.91;;;11.59;100.00
33155;BME280;19511;42.682;23.332;2023-05-23T05:11:18;95119.31;;;11.57;100.00
33155;BME280;19511;42.682;23.332;2023-05-23T05:13:44;95115.78;;;11.53;100.00
33155;BME280;19511;42.682;23.332;2023-05-23T05:16:09;95105.00;;;11.62;100.00
33155;BME280;19511;42.682;23.332;2023-05-23T05:18:42;95108.28;;;11.53;100.00
33155;BME280;19511;42.682;23.332;2023-05-23T05:21:07;95102.38;;;11.51;100.00
33155;BME280;19511;42.682;23.332;2023-05-23T05:23:33;95116.81;;;11.66;100.00
33155;BME280;19511;42.682;23.332;2023-05-23T05:25:59;95130.88;;;11.79;100.00
33155;BME280;19511;42.682;23.332;2023-05-23T05:28:25;95047.66;;;11.32;100.00
33155;BME280;19511;42.682;23.332;2023-05-23T05:30:54;95118.16;;;11.82;100.00
33155;BME280;19511;42.682;23.332;2023-05-23T05:33:20;95125.38;;;11.75;100.00
33155;BME280;19511;42.682;23.332;2023-05-23T05:35:49;95106.34;;;11.77;100.00
33155;BME280;19511;42.682;23.332;2023-05-23T05:38:17;95038.94;;;11.33;100.00
33155;BME280;19511;42.682;23.332;2023-05-23T05:40:43;95113.22;;;11.93;100.00
33155;BME280;19511;42.682;23.332;2023-05-23T05:43:08;95126.16;;;12.03;100.00
33155;BME280;19511;42.682;23.332;2023-05-23T05:45:35;95104.91;;;11.97;100.00
33155;BME280;19511;42.682;23.332;2023-05-23T05:48:00;95117.75;;;12.11;100.00
33155;BME280;19511;42.682;23.332;2023-05-23T05:50:28;95116.78;;;12.21;100.00
33155;BME280;19511;42.682;23.332;2023-05-23T05:52:54;95114.97;;;12.11;100.00
33155;BME280;19511;42.682;23.332;2023-05-23T05:55:19;95119.31;;;12.12;100.00
33155;BME280;19511;42.682;23.332;2023-05-23T05:57:48;95126.06;;;12.11;100.00
33155;BME280;19511;42.682;23.332;2023-05-23T06:00:14;95110.03;;;12.22;100.00
33155;BME280;19511;42.682;23.332;2023-05-23T06:02:42;95128.09;;;12.54;100.00
33155;BME280;19511;42.682;23.332;2023-05-23T06:05:09;95125.69;;;12.56;100.00
33155;BME280;19511;42.682;23.332;2023-05-23T06:07:40;95105.25;;;12.22;100.00
33155;BME280;19511;42.682;23.332;2023-05-23T06:10:09;95131.38;;;12.25;100.00
33155;BME280;19511;42.682;23.332;2023-05-23T06:12:39;95113.34;;;12.37;100.00
33155;BME280;19511;42.682;23.332;2023-05-23T06:15:16;95120.25;;;12.49;100.00
33155;BME280;19511;42.682;23.332;2023-05-23T06:17:45;95118.75;;;12.44;100.00
33155;BME280;19511;42.682;23.332;2023-05-23T06:20:11;95127.56;;;12.39;100.00
33155;BME280;19511;42.682;23.332;2023-05-23T06:22:39;95130.38;;;12.59;100.00
33155;BME280;19511;42.682;23.332;2023-05-23T06:25:05;95127.38;;;12.73;100.00
33155;BME280;19511;42.682;23.332;2023-05-23T06:27:34;95119.97;;;12.87;100.00
33155;BME280;19511;42.682;23.332;2023-05-23T06:30:04;95135.06;;;13.06;100.00
33155;BME280;19511;42.682;23.332;2023-05-23T06:32:29;95124.09;;;12.99;100.00
33155;BME280;19511;42.682;23.332;2023-05-23T06:35:01;95134.84;;;13.17;100.00
33155;BME280;19511;42.682;23.332;2023-05-23T06:37:27;95132.50;;;13.15;100.00
33155;BME280;19511;42.682;23.332;2023-05-23T06:40:05;95126.22;;;13.11;100.00
33155;BME280;19511;42.682;23.332;2023-05-23T06:42:42;95119.47;;;12.92;100.00
33155;BME280;19511;42.682;23.332;2023-05-23T06:45:16;95120.53;;;13.18;100.00
33155;BME280;19511;42.682;23.332;2023-05-23T06:47:44;95124.09;;;13.39;100.00
33155;BME280;19511;42.682;23.332;2023-05-23T06:50:13;95124.16;;;13.55;100.00
33155;BME280;19511;42.682;23.332;2023-05-23T06:52:50;95120.59;;;13.55;100.00
33155;BME280;19511;42.682;23.332;2023-05-23T06:55:16;95106.88;;;13.64;100.00
33155;BME280;19511;42.682;23.332;2023-05-23T06:57:47;95118.31;;;13.86;100.00
33155;BME280;19511;42.682;23.332;2023-05-23T07:00:16;95099.63;;;14.03;100.00
33155;BME280;19511;42.682;23.332;2023-05-23T07:02:42;95059.41;;;13.92;100.00
33155;BME280;19511;42.682;23.332;2023-05-23T07:05:12;95096.50;;;14.18;100.00
33155;BME280;19511;42.682;23.332;2023-05-23T07:07:38;95095.63;;;14.21;100.00
33155;BME280;19511;42.682;23.332;2023-05-23T07:10:04;95079.53;;;14.29;100.00
33155;BME280;19511;42.682;23.332;2023-05-23T07:12:30;95097.66;;;14.50;100.00
33155;BME280;19511;42.682;23.332;2023-05-23T07:14:55;95098.50;;;14.80;100.00
33155;BME280;19511;42.682;23.332;2023-05-23T07:17:21;95073.47;;;14.63;100.00
33155;BME280;19511;42.682;23.332;2023-05-23T07:19:46;95082.00;;;14.73;100.00
33155;BME280;19511;42.682;23.332;2023-05-23T07:22:12;95026.69;;;14.58;100.00
33155;BME280;19511;42.682;23.332;2023-05-23T07:24:38;95014.31;;;14.76;100.00
33155;BME280;19511;42.682;23.332;2023-05-23T07:27:03;95016.94;;;14.96;100.00
33155;BME280;19511;42.682;23.332;2023-05-23T07:29:29;95081.97;;;15.57;100.00
33155;BME280;19511;42.682;23.332;2023-05-23T07:31:58;95066.16;;;15.54;100.00
33155;BME280;19511;42.682;23.332;2023-05-23T07:34:24;95068.81;;;15.45;100.00
33155;BME280;19511;42.682;23.332;2023-05-23T07:36:54;95066.94;;;15.67;100.00
33155;BME280;19511;42.682;23.332;2023-05-23T07:39:19;95057.38;;;15.81;100.00
33155;BME280;19511;42.682;23.332;2023-05-23T07:41:48;94983.88;;;15.24;100.00
33155;BME280;19511;42.682;23.332;2023-05-23T07:44:15;95055.56;;;15.88;100.00
33155;BME280;19511;42.682;23.332;2023-05-23T07:46:40;95054.22;;;16.05;100.00
33155;BME280;19511;42.682;23.332;2023-05-23T07:49:06;95040.16;;;16.09;100.00
33155;BME280;19511;42.682;23.332;2023-05-23T07:51:31;94988.63;;;15.88;100.00
33155;BME280;19511;42.682;23.332;2023-05-23T07:54:01;95056.50;;;16.32;100.00
33155;BME280;19511;42.682;23.332;2023-05-23T07:56:30;95046.53;;;16.44;100.00
33155;BME280;19511;42.682;23.332;2023-05-23T07:58:55;95045.50;;;16.51;100.00
33155;BME280;19511;42.682;23.332;2023-05-23T08:01:21;95049.28;;;16.57;100.00
33155;BME280;19511;42.682;23.332;2023-05-23T08:03:46;95033.53;;;16.28;100.00
33155;BME280;19511;42.682;23.332;2023-05-23T08:06:17;95039.53;;;16.62;100.00
33155;BME280;19511;42.682;23.332;2023-05-23T08:08:43;95038.13;;;16.79;100.00
33155;BME280;19511;42.682;23.332;2023-05-23T08:11:09;95032.25;;;17.00;100.00
33155;BME280;19511;42.682;23.332;2023-05-23T08:13:34;95029.72;;;17.14;100.00
33155;BME280;19511;42.682;23.332;2023-05-23T08:16:00;95027.78;;;17.34;100.00
33155;BME280;19511;42.682;23.332;2023-05-23T08:18:25;95029.84;;;17.42;100.00
33155;BME280;19511;42.682;23.332;2023-05-23T08:20:52;95025.59;;;17.60;100.00
33155;BME280;19511;42.682;23.332;2023-05-23T08:23:18;95016.72;;;17.52;100.00
33155;BME280;19511;42.682;23.332;2023-05-23T08:25:43;95016.66;;;17.43;100.00
33155;BME280;19511;42.682;23.332;2023-05-23T08:28:09;95040.00;;;17.58;100.00
33155;BME280;19511;42.682;23.332;2023-05-23T08:30:34;94968.59;;;17.26;100.00
33155;BME280;19511;42.682;23.332;2023-05-23T08:33:00;94964.00;;;17.41;100.00
33155;BME280;19511;42.682;23.332;2023-05-23T08:35:29;95027.44;;;17.94;100.00
33155;BME280;19511;42.682;23.332;2023-05-23T08:37:59;95016.25;;;17.94;100.00
33155;BME280;19511;42.682;23.332;2023-05-23T08:40:26;94964.25;;;17.75;100.00
33155;BME280;19511;42.682;23.332;2023-05-23T08:42:53;95014.75;;;18.31;100.00
33155;BME280;19511;42.682;23.332;2023-05-23T08:45:19;95016.63;;;18.43;100.00
33155;BME280;19511;42.682;23.332;2023-05-23T08:47:45;94947.84;;;18.05;100.00
33155;BME280;19511;42.682;23.332;2023-05-23T08:50:15;95002.00;;;18.48;100.00
33155;BME280;19511;42.682;23.332;2023-05-23T08:55:23;94951.28;;;18.37;100.00
33155;BME280;19511;42.682;23.332;2023-05-23T08:57:58;94941.00;;;18.52;100.00
33155;BME280;19511;42.682;23.332;2023-05-23T09:00:25;95010.38;;;19.13;100.00
33155;BME280;19511;42.682;23.332;2023-05-23T09:02:51;94989.84;;;19.07;100.00
33155;BME280;19511;42.682;23.332;2023-05-23T09:05:17;94946.91;;;18.91;100.00
33155;BME280;19511;42.682;23.332;2023-05-23T09:07:45;94986.13;;;19.53;100.00
33155;BME280;19511;42.682;23.332;2023-05-23T09:10:13;94987.00;;;19.68;100.00
33155;BME280;19511;42.682;23.332;2023-05-23T09:12:41;94993.59;;;19.89;100.00
33155;BME280;19511;42.682;23.332;2023-05-23T09:15:08;94995.47;;;19.93;100.00
33155;BME280;19511;42.682;23.332;2023-05-23T09:17:35;94996.50;;;20.04;100.00
33155;BME280;19511;42.682;23.332;2023-05-23T09:20:02;94929.06;;;19.89;100.00
33155;BME280;19511;42.682;23.332;2023-05-23T09:22:29;94977.00;;;20.25;100.00
33155;BME280;19511;42.682;23.332;2023-05-23T09:24:55;94978.09;;;20.52;100.00
33155;BME280;19511;42.682;23.332;2023-05-23T09:27:22;94989.13;;;20.55;100.00
33155;BME280;19511;42.682;23.332;2023-05-23T09:29:49;94965.69;;;20.59;100.00
33155;BME280;19511;42.682;23.332;2023-05-23T09:32:19;94967.09;;;20.78;100.00
33155;BME280;19511;42.682;23.332;2023-05-23T09:37:20;94979.84;;;20.64;100.00
33155;BME280;19511;42.682;23.332;2023-05-23T09:39:48;94965.31;;;20.66;100.00
33155;BME280;19511;42.682;23.332;2023-05-23T09:42:20;94968.78;;;20.85;100.00
33155;BME280;19511;42.682;23.332;2023-05-23T09:44:47;94965.59;;;20.68;100.00
33155;BME280;19511;42.682;23.332;2023-05-23T09:47:15;94955.28;;;20.89;100.00
33155;BME280;19511;42.682;23.332;2023-05-23T09:49:42;94906.09;;;20.54;100.00
33155;BME280;19511;42.682;23.332;2023-05-23T09:52:13;94942.31;;;20.92;100.00
33155;BME280;19511;42.682;23.332;2023-05-23T09:54:45;94942.31;;;21.07;100.00
33155;BME280;19511;42.682;23.332;2023-05-23T09:57:14;94886.84;;;20.77;100.00
33155;BME280;19511;42.682;23.332;2023-05-23T09:59:44;94942.88;;;20.96;100.00
33155;BME280;19511;42.682;23.332;2023-05-23T10:02:15;94940.75;;;21.06;100.00
33155;BME280;19511;42.682;23.332;2023-05-23T10:04:42;94956.84;;;21.05;100.00
33155;BME280;19511;42.682;23.332;2023-05-23T10:07:17;94948.13;;;21.03;100.00
33155;BME280;19511;42.682;23.332;2023-05-23T10:09:53;94941.91;;;21.14;100.00
33155;BME280;19511;42.682;23.332;2023-05-23T10:15:02;94935.19;;;21.41;100.00
33155;BME280;19511;42.682;23.332;2023-05-23T10:17:35;94936.13;;;21.53;100.00
33155;BME280;19511;42.682;23.332;2023-05-23T10:20:09;94893.13;;;21.32;100.00
33155;BME280;19511;42.682;23.332;2023-05-23T10:22:37;94928.06;;;21.76;100.00
33155;BME280;19511;42.682;23.332;2023-05-23T10:25:03;94931.94;;;21.78;100.00
33155;BME280;19511;42.682;23.332;2023-05-23T10:27:36;94923.63;;;21.69;100.00
33155;BME280;19511;42.682;23.332;2023-05-23T10:30:02;94907.56;;;21.40;100.00
33155;BME280;19511;42.682;23.332;2023-05-23T10:32:28;94924.47;;;21.75;100.00
33155;BME280;19511;42.682;23.332;2023-05-23T10:37:47;94914.44;;;21.89;96.64
33155;BME280;19511;42.682;23.332;2023-05-23T10:45:22;94910.56;;;22.07;96.80
33155;BME280;19511;42.682;23.332;2023-05-23T10:47:50;94888.19;;;21.98;91.33
33155;BME280;19511;42.682;23.332;2023-05-23T10:50:35;94907.31;;;22.35;93.61
33155;BME280;19511;42.682;23.332;2023-05-23T10:53:05;94848.50;;;22.01;100.00
33155;BME280;19511;42.682;23.332;2023-05-23T10:55:35;94906.19;;;22.47;96.66
33155;BME280;19511;42.682;23.332;2023-05-23T10:58:15;94886.19;;;22.45;95.04
33155;BME280;19511;42.682;23.332;2023-05-23T11:01:00;94895.94;;;22.71;98.32
33155;BME280;19511;42.682;23.332;2023-05-23T11:06:03;94899.69;;;22.62;96.74
33155;BME280;19511;42.682;23.332;2023-05-23T11:08:39;94888.56;;;22.32;92.81
33155;BME280;19511;42.682;23.332;2023-05-23T11:11:06;94899.97;;;22.23;92.75
33155;BME280;19511;42.682;23.332;2023-05-23T11:13:55;94890.59;;;22.52;88.80
33155;BME280;19511;42.682;23.332;2023-05-23T11:16:40;94896.78;;;22.56;86.72
33155;BME280;19511;42.682;23.332;2023-05-23T11:24:22;94813.28;;;21.85;85.62
33155;BME280;19511;42.682;23.332;2023-05-23T11:26:57;94822.84;;;21.73;86.42
33155;BME280;19511;42.682;23.332;2023-05-23T11:29:28;94874.56;;;22.17;87.13
33155;BME280;19511;42.682;23.332;2023-05-23T11:31:54;94860.00;;;22.18;91.80
33155;BME280;19511;42.682;23.332;2023-05-23T11:34:21;94874.78;;;22.13;89.80
33155;BME280;19511;42.682;23.332;2023-05-23T11:36:46;94874.13;;;22.24;90.24
33155;BME280;19511;42.682;23.332;2023-05-23T11:39:16;94862.88;;;22.45;86.95
33155;BME280;19511;42.682;23.332;2023-05-23T11:41:43;94822.16;;;22.25;85.96
33155;BME280;19511;42.682;23.332;2023-05-23T11:44:12;94808.56;;;22.24;83.59
33155;BME280;19511;42.682;23.332;2023-05-23T11:46:38;94855.91;;;22.66;87.85
33155;BME280;19511;42.682;23.332;2023-05-23T11:49:09;94859.06;;;22.74;86.88
33155;BME280;19511;42.682;23.332;2023-05-23T11:51:35;94858.13;;;22.83;91.92
33155;BME280;19511;42.682;23.332;2023-05-23T11:54:01;94858.97;;;23.21;87.53
33155;BME280;19511;42.682;23.332;2023-05-23T11:56:37;94843.59;;;22.96;86.05
33155;BME280;19511;42.682;23.332;2023-05-23T11:59:03;94864.16;;;23.02;84.01
33155;BME280;19511;42.682;23.332;2023-05-23T12:01:28;94828.31;;;22.76;87.23
33155;BME280;19511;42.682;23.332;2023-05-23T12:03:57;94816.47;;;22.72;87.74
33155;BME280;19511;42.682;23.332;2023-05-23T12:06:23;94793.50;;;22.85;87.80
33155;BME280;19511;42.682;23.332;2023-05-23T12:08:50;94841.13;;;23.41;89.31
33155;BME280;19511;42.682;23.332;2023-05-23T12:11:16;94834.50;;;23.50;88.72
33155;BME280;19511;42.682;23.332;2023-05-23T12:13:46;94835.41;;;23.73;85.60
33155;BME280;19511;42.682;23.332;2023-05-23T12:16:20;94834.50;;;23.12;85.78
33155;BME280;19511;42.682;23.332;2023-05-23T12:18:46;94830.13;;;23.11;86.65
33155;BME280;19511;42.682;23.332;2023-05-23T12:21:12;94835.44;;;23.36;84.48
33155;BME280;19511;42.682;23.332;2023-05-23T12:23:41;94830.31;;;23.34;87.29
33155;BME280;19511;42.682;23.332;2023-05-23T12:26:07;94822.03;;;23.25;83.91
33155;BME280;19511;42.682;23.332;2023-05-23T12:28:39;94820.88;;;23.43;83.05
33155;BME280;19511;42.682;23.332;2023-05-23T12:33:39;94813.75;;;23.59;80.53
33155;BME280;19511;42.682;23.332;2023-05-23T12:36:05;94802.00;;;23.66;81.43
33155;BME280;19511;42.682;23.332;2023-05-23T12:38:35;94809.00;;;23.82;77.87
33155;BME280;19511;42.682;23.332;2023-05-23T12:41:18;94741.88;;;23.48;78.22
33155;BME280;19511;42.682;23.332;2023-05-23T12:43:49;94808.84;;;23.48;77.67
33155;BME280;19511;42.682;23.332;2023-05-23T12:46:16;94796.41;;;23.28;75.29
33155;BME280;19511;42.682;23.332;2023-05-23T12:48:41;94805.03;;;23.57;74.79
33155;BME280;19511;42.682;23.332;2023-05-23T12:51:10;94805.38;;;23.76;72.44
33155;BME280;19511;42.682;23.332;2023-05-23T12:53:36;94793.31;;;23.75;68.65
33155;BME280;19511;42.682;23.332;2023-05-23T12:56:01;94790.94;;;23.57;65.24
33155;BME280;19511;42.682;23.332;2023-05-23T12:58:27;94801.03;;;23.80;71.12
33155;BME280;19511;42.682;23.332;2023-05-23T13:00:52;94745.53;;;23.66;64.17
33155;BME280;19511;42.682;23.332;2023-05-23T13:03:18;94727.41;;;23.24;65.21
33155;BME280;19511;42.682;23.332;2023-05-23T13:05:44;94762.91;;;23.47;69.07
33155;BME280;19511;42.682;23.332;2023-05-23T13:08:09;94789.19;;;23.76;66.70
33155;BME280;19511;42.682;23.332;2023-05-23T13:10:36;94736.72;;;23.47;66.61
33155;BME280;19511;42.682;23.332;2023-05-23T13:13:03;94778.09;;;23.61;70.24
33155;BME280;19511;42.682;23.332;2023-05-23T13:15:28;94717.44;;;23.34;65.36
33155;BME280;19511;42.682;23.332;2023-05-23T13:17:56;94771.78;;;23.89;69.66